Time;durP1;ratioP1;P1;durP2;ratioP2;P2;SDS_P1;SDS_P2;PMS_P1;PMS_P2;Temp;Humidity;BMP_temperature;BMP_pressure;BME280_temperature;BME280_humidity;BME280_pressure;Samples;Min_cycle;Max_cycle;Signal;HPM_P1;HPM_P2
2021/03/21 00:00:35;;;;;;;7.68;6.07;;;2.40;82.80;;;;;;5053469;28;20310;-40
2021/03/21 00:03:04;;;;;;;6.30;5.70;;;2.40;82.80;;;;;;5052561;28;20216;-40
2021/03/21 00:05:31;;;;;;;6.85;4.90;;;2.40;82.70;;;;;;5053008;28;20654;-40
2021/03/21 00:08:01;;;;;;;5.35;4.60;;;2.40;82.80;;;;;;5053132;28;20212;-41
2021/03/21 00:10:31;;;;;;;7.57;6.30;;;2.30;83.00;;;;;;5053038;28;20300;-40
2021/03/21 00:12:59;;;;;;;6.20;5.60;;;2.30;83.10;;;;;;5053289;28;20211;-41
2021/03/21 00:15:26;;;;;;;7.03;5.18;;;2.20;83.20;;;;;;5053102;28;20239;-40
2021/03/21 00:17:54;;;;;;;8.05;5.85;;;2.20;83.20;;;;;;5053083;28;20218;-40
2021/03/21 00:20:24;;;;;;;7.93;5.78;;;2.20;83.30;;;;;;5052934;28;20639;-40
2021/03/21 00:22:51;;;;;;;6.22;5.22;;;2.20;83.40;;;;;;5052961;28;20642;-40
2021/03/21 00:25:20;;;;;;;5.43;4.93;;;2.20;83.30;;;;;;5052987;28;20242;-40
2021/03/21 00:27:48;;;;;;;6.67;5.60;;;2.20;83.30;;;;;;5052975;28;20302;-40
2021/03/21 00:30:19;;;;;;;7.80;5.90;;;2.20;83.30;;;;;;5053104;28;20216;-40
2021/03/21 00:32:46;;;;;;;6.75;5.25;;;2.10;83.60;;;;;;5052835;28;20212;-40
2021/03/21 00:35:14;;;;;;;8.07;5.35;;;2.10;83.90;;;;;;5052939;28;20572;-40
2021/03/21 00:37:42;;;;;;;10.18;7.63;;;2.10;84.10;;;;;;5053222;28;20243;-40
2021/03/21 00:40:12;;;;;;;6.57;5.07;;;2.10;84.10;;;;;;5052537;28;20789;-43
2021/03/21 00:42:39;;;;;;;6.77;4.93;;;2.10;84.20;;;;;;5052661;28;20212;-40
2021/03/21 00:45:09;;;;;;;7.73;6.23;;;2.10;84.30;;;;;;5052657;28;20218;-40
2021/03/21 00:47:37;;;;;;;5.37;4.87;;;2.10;84.40;;;;;;5052570;28;20675;-40
2021/03/21 00:50:07;;;;;;;5.55;5.05;;;2.10;84.50;;;;;;5052546;28;20242;-40
2021/03/21 00:52:34;;;;;;;7.78;5.30;;;2.10;84.50;;;;;;5052613;28;20307;-40
2021/03/21 00:55:01;;;;;;;5.38;4.75;;;2.10;84.70;;;;;;5052446;28;20240;-40
2021/03/21 00:57:29;;;;;;;5.67;5.07;;;2.10;84.90;;;;;;5052412;28;20214;-40
2021/03/21 00:59:56;;;;;;;5.82;5.22;;;2.10;85.00;;;;;;5052134;28;20228;-40
2021/03/21 01:02:24;;;;;;;5.53;4.80;;;2.10;85.20;;;;;;5052190;28;20659;-40
2021/03/21 01:04:51;;;;;;;6.73;4.97;;;2.10;85.30;;;;;;5052365;28;20208;-40
2021/03/21 01:07:18;;;;;;;5.40;4.90;;;2.00;85.40;;;;;;5052368;28;20304;-40
2021/03/21 01:09:45;;;;;;;5.97;4.93;;;2.00;85.60;;;;;;5052125;28;20255;-40
2021/03/21 01:12:12;;;;;;;6.27;5.13;;;2.00;85.70;;;;;;5052048;28;20611;-40
2021/03/21 01:14:39;;;;;;;5.23;4.67;;;2.00;85.80;;;;;;5051782;28;20239;-40
2021/03/21 01:17:07;;;;;;;5.38;4.88;;;2.00;86.00;;;;;;5052105;28;20291;-40
2021/03/21 01:19:35;;;;;;;5.43;4.53;;;2.00;86.00;;;;;;5051828;28;20228;-40
2021/03/21 01:22:02;;;;;;;6.25;4.85;;;1.90;86.20;;;;;;5052035;28;20291;-40
2021/03/21 01:24:29;;;;;;;5.35;4.57;;;1.90;86.30;;;;;;5051967;28;20724;-40
2021/03/21 01:26:56;;;;;;;6.13;5.22;;;1.90;86.40;;;;;;5051717;28;20295;-40
2021/03/21 01:29:23;;;;;;;6.35;5.18;;;1.90;86.50;;;;;;5051732;28;20308;-40
2021/03/21 01:31:50;;;;;;;7.97;4.97;;;1.90;86.60;;;;;;5051879;28;20235;-40
2021/03/21 01:34:17;;;;;;;5.47;4.97;;;1.90;86.70;;;;;;5051808;28;20258;-40
2021/03/21 01:36:45;;;;;;;8.13;5.50;;;1.90;86.70;;;;;;5051570;28;20754;-40
2021/03/21 01:39:22;;;;;;;6.10;4.78;;;1.90;87.00;;;;;;5051628;28;20587;-40
2021/03/21 01:41:56;;;;;;;5.93;5.05;;;1.80;87.20;;;;;;5051511;28;20298;-40
2021/03/21 01:44:23;;;;;;;5.68;5.03;;;1.90;87.40;;;;;;5051666;28;20204;-40
2021/03/21 01:47:20;;;;;;;6.72;5.25;;;1.90;87.30;;;;;;5051793;28;20257;-40
2021/03/21 01:49:49;;;;;;;6.88;5.88;;;1.90;87.50;;;;;;5045085;28;20698;-40
2021/03/21 01:52:40;;;;;;;5.28;4.78;;;1.80;87.50;;;;;;5051442;28;20208;-40
2021/03/21 01:55:11;;;;;;;6.30;4.67;;;1.90;87.90;;;;;;5051314;28;20212;-40
2021/03/21 01:57:39;;;;;;;5.80;4.90;;;1.90;87.80;;;;;;5051250;28;20311;-40
2021/03/21 02:00:08;;;;;;;5.65;5.03;;;1.90;87.90;;;;;;5051030;28;20315;-40
2021/03/21 02:02:35;;;;;;;6.85;5.10;;;1.90;87.80;;;;;;5050969;28;20665;-40
2021/03/21 02:05:03;;;;;;;5.53;4.70;;;2.00;88.00;;;;;;5050933;28;20682;-40
2021/03/21 02:07:42;;;;;;;6.55;5.50;;;2.00;88.00;;;;;;5051033;28;20212;-39
2021/03/21 02:10:22;;;;;;;8.50;5.57;;;2.00;88.20;;;;;;5051288;28;20626;-39
2021/03/21 02:12:57;;;;;;;5.70;5.00;;;2.00;88.30;;;;;;5051220;28;20309;-39
2021/03/21 02:15:31;;;;;;;4.70;4.30;;;1.90;88.40;;;;;;5051330;28;20307;-40
2021/03/21 02:18:07;;;;;;;5.77;4.97;;;1.90;88.60;;;;;;5051393;28;20216;-40
2021/03/21 02:20:57;;;;;;;5.70;5.10;;;1.90;88.80;;;;;;5051245;28;20232;-40
2021/03/21 02:23:51;;;;;;;6.07;5.47;;;1.90;89.30;;;;;;5051162;28;20298;-40
2021/03/21 02:26:41;;;;;;;6.30;4.53;;;1.90;89.30;;;;;;5052305;28;20286;-40
2021/03/21 02:29:21;;;;;;;6.18;4.95;;;1.90;89.40;;;;;;5055073;28;20239;-39
2021/03/21 02:31:53;;;;;;;5.67;5.17;;;1.80;89.70;;;;;;5054970;28;20203;-39
2021/03/21 02:34:27;;;;;;;7.95;5.43;;;1.80;89.70;;;;;;5055055;28;20212;-39
2021/03/21 02:37:00;;;;;;;5.60;5.07;;;1.80;90.00;;;;;;5055127;28;20204;-39
2021/03/21 02:39:34;;;;;;;7.80;5.18;;;1.80;90.30;;;;;;5054952;28;20226;-39
2021/03/21 02:42:06;;;;;;;7.20;5.82;;;1.70;90.20;;;;;;5055024;28;20218;-39
2021/03/21 02:44:39;;;;;;;6.05;5.45;;;1.70;90.20;;;;;;5054837;28;20302;-39
2021/03/21 02:47:11;;;;;;;7.73;6.27;;;1.80;90.40;;;;;;5054941;28;20219;-40
2021/03/21 02:49:43;;;;;;;6.78;6.07;;;1.70;90.30;;;;;;5054584;28;20356;-40
2021/03/21 02:52:13;;;;;;;6.35;5.63;;;1.70;90.40;;;;;;5054713;28;20239;-39
2021/03/21 02:54:45;;;;;;;9.23;5.50;;;1.60;90.80;;;;;;5054392;28;20288;-40
2021/03/21 02:57:15;;;;;;;6.97;5.63;;;1.70;90.60;;;;;;5054492;28;20250;-39
2021/03/21 02:59:49;;;;;;;6.20;5.60;;;1.70;90.60;;;;;;5054737;28;20254;-39
2021/03/21 03:02:22;;;;;;;6.55;5.90;;;1.70;90.60;;;;;;5054679;28;20250;-39
2021/03/21 03:04:56;;;;;;;5.75;5.15;;;1.70;90.90;;;;;;5054292;28;20730;-39
2021/03/21 03:07:29;;;;;;;8.13;6.03;;;1.70;90.80;;;;;;5054421;28;20218;-40
2021/03/21 03:10:01;;;;;;;6.70;5.55;;;1.60;90.80;;;;;;5054484;28;20210;-39
2021/03/21 03:12:33;;;;;;;7.10;5.75;;;1.60;90.80;;;;;;5054377;28;20208;-40
2021/03/21 03:15:05;;;;;;;6.82;5.43;;;1.70;90.90;;;;;;5054423;28;20240;-40
2021/03/21 03:17:38;;;;;;;6.68;5.70;;;1.70;90.90;;;;;;5054358;28;20293;-40
2021/03/21 03:20:15;;;;;;;7.40;5.22;;;1.70;91.20;;;;;;5054237;28;20322;-40
2021/03/21 03:22:49;;;;;;;7.63;6.05;;;1.70;90.90;;;;;;5054205;28;20211;-40
2021/03/21 03:25:25;;;;;;;6.25;5.65;;;1.80;90.90;;;;;;5054079;28;20299;-40
2021/03/21 03:28:04;;;;;;;5.45;4.97;;;1.80;90.90;;;;;;5053869;28;20207;-39
2021/03/21 03:30:35;;;;;;;6.68;5.15;;;1.80;90.90;;;;;;5054263;28;20204;-40
2021/03/21 03:33:04;;;;;;;7.13;5.90;;;1.80;90.90;;;;;;5053935;28;20303;-40
2021/03/21 03:35:32;;;;;;;7.43;5.88;;;1.70;90.90;;;;;;5053948;28;20212;-40
2021/03/21 03:37:59;;;;;;;6.97;5.60;;;1.70;91.00;;;;;;5052390;28;20215;-39
2021/03/21 03:40:27;;;;;;;8.93;5.65;;;1.70;91.00;;;;;;5053485;28;20574;-40
2021/03/21 03:43:06;;;;;;;6.07;5.47;;;1.80;91.00;;;;;;5053557;28;20303;-43
2021/03/21 03:45:39;;;;;;;6.07;5.47;;;1.80;90.90;;;;;;5053711;28;20306;-40
2021/03/21 03:48:18;;;;;;;8.15;5.22;;;1.80;90.90;;;;;;5053645;28;20212;-41
2021/03/21 03:50:53;;;;;;;5.90;5.35;;;1.70;90.80;;;;;;5053343;28;20231;-40
2021/03/21 03:53:38;;;;;;;6.23;5.40;;;1.70;90.80;;;;;;5053417;28;20247;-40
2021/03/21 03:56:10;;;;;;;6.63;5.38;;;1.80;90.80;;;;;;5053716;28;20294;-40
2021/03/21 03:58:51;;;;;;;5.85;5.25;;;1.80;90.70;;;;;;5053327;28;20288;-41
2021/03/21 04:01:31;;;;;;;6.25;5.43;;;1.80;90.70;;;;;;5053380;28;20640;-40
2021/03/21 04:04:08;;;;;;;7.03;5.33;;;1.80;90.60;;;;;;5053301;28;20299;-40
2021/03/21 04:06:40;;;;;;;5.30;4.80;;;1.80;90.60;;;;;;5053263;28;20238;-40
2021/03/21 04:09:17;;;;;;;6.00;4.70;;;1.80;90.60;;;;;;5053214;28;20692;-40
2021/03/21 04:11:50;;;;;;;6.93;4.50;;;1.80;90.60;;;;;;5053099;28;20337;-40
2021/03/21 04:14:22;;;;;;;5.68;5.07;;;1.80;90.80;;;;;;5053188;28;20282;-40
2021/03/21 04:17:02;;;;;;;5.72;5.15;;;1.80;90.50;;;;;;5053032;28;20686;-40
2021/03/21 04:19:37;;;;;;;6.38;4.95;;;1.90;90.40;;;;;;5052915;28;20240;-40
2021/03/21 04:22:08;;;;;;;6.22;5.20;;;1.90;90.40;;;;;;5052887;28;20637;-40
2021/03/21 04:24:41;;;;;;;5.72;5.10;;;1.90;90.40;;;;;;5052891;28;20270;-39
2021/03/21 04:27:13;;;;;;;5.33;4.83;;;1.90;90.30;;;;;;5052797;28;20663;-40
2021/03/21 04:29:48;;;;;;;7.27;5.80;;;1.90;90.40;;;;;;5052774;28;20226;-41
2021/03/21 04:32:19;;;;;;;5.38;4.43;;;1.90;90.40;;;;;;5052752;28;20204;-39
2021/03/21 04:34:51;;;;;;;19.42;11.43;;;1.90;90.40;;;;;;5052626;28;20696;-40
2021/03/21 04:37:19;;;;;;;7.32;5.97;;;1.90;90.40;;;;;;5052714;28;20302;-40
2021/03/21 04:39:48;;;;;;;5.57;5.00;;;1.90;90.40;;;;;;5052526;28;20669;-40
2021/03/21 04:42:21;;;;;;;6.00;5.40;;;2.00;90.40;;;;;;5052521;28;20299;-40
2021/03/21 04:44:52;;;;;;;5.85;5.28;;;1.90;90.30;;;;;;5052545;28;20649;-40
2021/03/21 04:47:25;;;;;;;6.97;5.87;;;1.90;90.40;;;;;;5052796;28;20238;-40
2021/03/21 04:49:55;;;;;;;7.53;6.07;;;1.90;90.50;;;;;;5051930;28;20254;-40
2021/03/21 04:52:35;;;;;;;7.00;4.63;;;1.90;90.50;;;;;;5052536;28;20299;-40
2021/03/21 04:55:05;;;;;;;6.05;5.20;;;1.90;90.60;;;;;;5052353;28;20377;-40
2021/03/21 04:57:36;;;;;;;6.20;5.60;;;1.80;90.60;;;;;;5052245;28;20243;-40
2021/03/21 05:00:07;;;;;;;7.78;5.32;;;1.80;90.60;;;;;;5052369;28;20267;-40
2021/03/21 05:02:37;;;;;;;6.30;5.05;;;1.80;90.60;;;;;;5051754;28;20262;-40
2021/03/21 05:05:11;;;;;;;6.15;5.55;;;1.80;90.70;;;;;;5051881;28;20215;-40
2021/03/21 05:07:45;;;;;;;6.00;5.10;;;1.80;90.70;;;;;;5051742;28;20243;-40
2021/03/21 05:10:20;;;;;;;5.43;4.88;;;1.80;90.60;;;;;;5063792;28;20610;-40
2021/03/21 05:12:51;;;;;;;5.30;4.70;;;1.90;90.70;;;;;;5072276;28;20241;-40
2021/03/21 05:15:24;;;;;;;5.28;4.78;;;1.90;90.60;;;;;;5071932;28;20610;-40
2021/03/21 05:18:06;;;;;;;5.47;4.97;;;1.80;90.70;;;;;;5071871;28;20330;-40
2021/03/21 05:20:37;;;;;;;7.18;4.80;;;1.90;90.80;;;;;;5071811;28;20760;-40
2021/03/21 05:23:16;;;;;;;6.43;5.00;;;1.90;90.80;;;;;;5071935;28;20294;-40
2021/03/21 05:25:47;;;;;;;6.53;4.82;;;1.90;90.90;;;;;;5071571;28;20761;-40
2021/03/21 05:28:21;;;;;;;6.17;5.57;;;1.80;90.80;;;;;;5071871;28;20294;-40
2021/03/21 05:31:00;;;;;;;6.60;5.40;;;1.90;91.00;;;;;;5071463;28;20203;-40
2021/03/21 05:33:28;;;;;;;6.22;5.63;;;1.90;91.00;;;;;;5071613;28;20250;-41
2021/03/21 05:35:58;;;;;;;5.38;4.88;;;1.90;91.00;;;;;;5071784;28;20552;-40
2021/03/21 05:38:37;;;;;;;5.72;5.22;;;1.90;91.10;;;;;;5071689;28;20298;-40
2021/03/21 05:41:48;;;;;;;6.53;5.35;;;1.80;91.10;;;;;;5071529;28;20605;-40
2021/03/21 05:44:41;;;;;;;7.20;5.15;;;1.80;91.20;;;;;;5071665;28;20298;-40
2021/03/21 05:47:30;;;;;;;7.45;5.75;;;1.80;91.30;;;;;;5071396;28;20241;-39
2021/03/21 05:50:35;;;;;;;5.80;5.20;;;1.80;91.20;;;;;;5071163;28;20235;-40
2021/03/21 05:53:50;;;;;;;6.32;5.13;;;1.90;91.30;;;;;;5071390;28;20301;-40
2021/03/21 05:56:42;;;;;;;5.30;4.55;;;2.00;91.20;;;;;;4989829;28;20289;-40
2021/03/21 05:59:31;;;;;;;5.22;4.78;;;2.00;91.10;;;;;;5027450;28;20237;-39
2021/03/21 06:02:27;;;;;;;6.23;5.20;;;2.00;91.10;;;;;;5073412;28;20246;-39
2021/03/21 06:05:26;;;;;;;5.53;4.45;;;2.00;91.10;;;;;;5075458;28;20520;-39
2021/03/21 06:08:15;;;;;;;5.67;5.07;;;2.10;91.00;;;;;;5075310;28;20697;-39
2021/03/21 06:11:27;;;;;;;5.72;4.93;;;2.10;90.90;;;;;;5075288;28;20268;-39
2021/03/21 06:14:15;;;;;;;4.87;4.47;;;2.10;91.00;;;;;;5075434;28;20234;-39
2021/03/21 06:17:00;;;;;;;6.10;5.37;;;2.10;90.90;;;;;;5075324;28;20290;-39
2021/03/21 06:19:48;;;;;;;6.57;4.55;;;2.20;90.70;;;;;;5075159;28;20694;-39
2021/03/21 06:22:53;;;;;;;5.87;5.13;;;2.20;90.70;;;;;;5075223;28;20218;-39
2021/03/21 06:25:51;;;;;;;5.93;5.32;;;2.30;90.70;;;;;;5074995;28;20689;-39
2021/03/21 06:29:06;;;;;;;8.43;4.85;;;2.40;90.50;;;;;;5074967;28;20303;-39
2021/03/21 06:32:16;;;;;;;5.95;5.22;;;2.50;90.30;;;;;;5075092;28;20281;-39
2021/03/21 06:34:50;;;;;;;7.03;5.07;;;2.50;90.30;;;;;;5074782;28;20212;-39
2021/03/21 06:38:11;;;;;;;5.65;4.93;;;2.50;90.30;;;;;;5074899;28;20211;-40
2021/03/21 06:40:50;;;;;;;5.27;4.77;;;2.60;90.20;;;;;;5004849;28;20331;-40
2021/03/21 06:43:47;;;;;;;7.35;5.25;;;2.60;90.10;;;;;;5074918;28;20723;-40
2021/03/21 06:46:33;;;;;;;6.77;5.17;;;2.60;90.10;;;;;;5075129;28;20214;-40
2021/03/21 06:49:42;;;;;;;5.50;4.97;;;2.50;90.10;;;;;;5074844;28;20211;-40
2021/03/21 06:52:23;;;;;;;6.90;5.20;;;2.60;90.20;;;;;;5074909;28;20294;-41
2021/03/21 06:54:59;;;;;;;5.47;4.93;;;2.60;90.00;;;;;;5074564;28;20503;-40
2021/03/21 06:58:05;;;;;;;5.63;4.85;;;2.70;90.00;;;;;;5074682;28;20227;-40
2021/03/21 07:00:52;;;;;;;5.85;5.25;;;2.70;89.80;;;;;;5074640;28;20631;-40
2021/03/21 07:03:52;;;;;;;8.55;6.75;;;2.80;89.70;;;;;;5074575;28;20352;-41
2021/03/21 07:07:03;;;;;;;9.45;8.23;;;2.80;89.50;;;;;;5074334;28;20218;-40
2021/03/21 07:10:21;;;;;;;5.53;4.70;;;2.90;89.50;;;;;;5074151;28;20688;-40
2021/03/21 07:13:26;;;;;;;6.70;5.53;;;2.90;89.10;;;;;;5050296;28;20626;-41
2021/03/21 07:16:25;;;;;;;7.03;5.30;;;3.00;89.10;;;;;;5074106;28;20204;-39
2021/03/21 07:19:21;;;;;;;7.25;5.03;;;3.00;88.40;;;;;;5047104;28;20624;-40
2021/03/21 07:22:16;;;;;;;5.40;4.90;;;3.00;88.60;;;;;;5074013;28;20381;-39
2021/03/21 07:24:58;;;;;;;7.63;4.60;;;3.00;88.30;;;;;;5073873;28;20290;-40
2021/03/21 07:27:39;;;;;;;5.57;4.43;;;3.00;87.70;;;;;;5073817;28;20203;-40
2021/03/21 07:30:12;;;;;;;4.97;4.47;;;3.00;88.00;;;;;;5074063;28;20207;-40
2021/03/21 07:33:23;;;;;;;5.50;4.57;;;3.10;87.90;;;;;;5073763;28;20246;-39
2021/03/21 07:36:14;;;;;;;7.80;5.90;;;3.00;87.70;;;;;;5073617;28;20261;-40
2021/03/21 07:39:08;;;;;;;6.72;5.38;;;3.00;87.70;;;;;;5073471;28;20661;-40
2021/03/21 07:41:55;;;;;;;6.22;5.25;;;2.90;87.60;;;;;;5064167;28;20447;-39
2021/03/21 07:44:48;;;;;;;5.05;4.55;;;2.80;87.60;;;;;;5073570;28;20242;-39
2021/03/21 07:47:56;;;;;;;5.90;4.95;;;2.80;88.00;;;;;;5073578;28;20203;-41
2021/03/21 07:50:33;;;;;;;7.30;4.88;;;2.80;87.80;;;;;;4991778;28;20345;-40
2021/03/21 07:53:21;;;;;;;7.18;4.75;;;2.80;88.20;;;;;;4991947;28;20312;-41
2021/03/21 07:55:54;;;;;;;7.95;5.97;;;2.80;88.10;;;;;;5044997;28;20290;-41
2021/03/21 07:58:28;;;;;;;7.60;5.43;;;2.80;88.20;;;;;;5073300;28;20294;-41
2021/03/21 08:00:57;;;;;;;7.22;6.07;;;2.80;88.30;;;;;;5073107;28;20265;-41
2021/03/21 08:03:30;;;;;;;6.13;5.18;;;2.90;88.40;;;;;;5073097;28;20218;-41
2021/03/21 08:06:01;;;;;;;8.10;7.05;;;2.90;88.30;;;;;;5073020;28;20212;-41
2021/03/21 08:08:32;;;;;;;6.10;5.40;;;2.90;88.30;;;;;;5073092;28;20235;-40
2021/03/21 08:11:02;;;;;;;7.40;5.55;;;2.90;88.20;;;;;;5073062;28;20214;-41
2021/03/21 08:13:39;;;;;;;8.68;5.70;;;2.90;88.30;;;;;;5072899;28;20207;-41
2021/03/21 08:16:13;;;;;;;5.83;5.00;;;3.00;88.90;;;;;;5073022;28;20238;-40
2021/03/21 08:18:43;;;;;;;5.88;5.28;;;3.00;88.50;;;;;;5072836;28;20221;-40
2021/03/21 08:21:16;;;;;;;8.40;5.85;;;3.00;88.60;;;;;;5072625;28;20285;-40
2021/03/21 08:23:46;;;;;;;7.33;6.07;;;3.00;88.60;;;;;;5071783;28;20645;-40
2021/03/21 08:26:15;;;;;;;6.07;5.18;;;3.10;88.40;;;;;;5072386;28;20302;-40
2021/03/21 08:29:00;;;;;;;7.18;6.30;;;3.10;88.40;;;;;;5072551;28;20208;-40
2021/03/21 08:31:30;;;;;;;6.25;5.65;;;3.10;88.20;;;;;;5072347;28;20232;-40
2021/03/21 08:34:32;;;;;;;6.55;5.95;;;3.10;88.40;;;;;;5072403;28;20268;-40
2021/03/21 08:37:01;;;;;;;9.15;5.75;;;3.10;87.80;;;;;;5069476;28;20210;-40
2021/03/21 08:39:36;;;;;;;8.38;5.82;;;3.00;88.10;;;;;;5072432;28;20211;-40
2021/03/21 08:42:04;;;;;;;5.80;4.82;;;3.00;88.40;;;;;;5072281;28;20217;-41
2021/03/21 08:44:35;;;;;;;6.13;5.53;;;3.00;89.00;;;;;;5072084;28;20203;-40
2021/03/21 08:47:04;;;;;;;6.07;5.47;;;3.00;88.10;;;;;;5071974;28;20259;-40
2021/03/21 08:49:37;;;;;;;6.88;6.20;;;3.00;88.10;;;;;;5072048;28;20604;-41
2021/03/21 08:52:05;;;;;;;8.23;6.00;;;2.90;88.10;;;;;;5072091;28;20601;-41
2021/03/21 08:54:36;;;;;;;7.07;5.68;;;2.90;88.40;;;;;;5072013;28;20284;-42
2021/03/21 08:57:07;;;;;;;6.78;6.07;;;3.00;88.50;;;;;;5072096;28;20723;-40
2021/03/21 08:59:37;;;;;;;6.90;5.90;;;3.10;88.50;;;;;;5072008;28;20286;-39
2021/03/21 09:02:11;;;;;;;6.00;5.40;;;3.10;88.20;;;;;;5071587;28;20761;-39
2021/03/21 09:04:42;;;;;;;6.68;5.60;;;3.10;88.30;;;;;;5072126;28;20213;-41
2021/03/21 09:07:29;;;;;;;7.80;6.45;;;3.10;88.20;;;;;;5071873;28;20298;-38
2021/03/21 09:10:32;;;;;;;8.52;6.70;;;3.10;88.30;;;;;;5071773;28;20253;-39
2021/03/21 09:13:19;;;;;;;9.80;6.45;;;3.10;88.50;;;;;;5071751;28;20674;-41
2021/03/21 09:15:59;;;;;;;7.75;6.43;;;3.20;88.60;;;;;;5071660;28;20579;-40
2021/03/21 09:18:29;;;;;;;9.63;7.32;;;3.30;88.50;;;;;;5071713;28;20209;-40
2021/03/21 09:21:18;;;;;;;6.68;5.80;;;3.30;88.50;;;;;;5071588;28;20234;-40
2021/03/21 09:23:52;;;;;;;7.72;5.82;;;3.30;88.40;;;;;;5071790;28;20211;-40
2021/03/21 09:26:31;;;;;;;13.68;7.97;;;3.40;88.40;;;;;;5071485;28;20298;-40
2021/03/21 09:29:03;;;;;;;6.68;5.72;;;3.40;88.70;;;;;;5071686;28;20207;-40
2021/03/21 09:31:30;;;;;;;7.18;6.15;;;3.40;88.80;;;;;;5071581;28;20284;-40
2021/03/21 09:34:12;;;;;;;6.90;5.70;;;3.40;89.30;;;;;;5071335;28;20218;-40
2021/03/21 09:36:44;;;;;;;7.22;6.03;;;3.40;89.50;;;;;;5071312;28;20454;-40
2021/03/21 09:39:15;;;;;;;7.45;6.30;;;3.40;89.70;;;;;;5071719;28;20298;-40
2021/03/21 09:41:42;;;;;;;7.13;6.30;;;3.40;89.70;;;;;;5071667;28;20318;-43
2021/03/21 09:44:21;;;;;;;7.35;6.22;;;3.40;89.60;;;;;;5071775;28;20218;-41
2021/03/21 09:46:52;;;;;;;8.03;6.33;;;3.40;89.80;;;;;;5071367;28;20208;-40
2021/03/21 09:49:44;;;;;;;6.90;5.55;;;3.40;90.00;;;;;;5071330;28;20217;-39
2021/03/21 09:52:14;;;;;;;6.68;5.82;;;3.40;89.90;;;;;;5071155;28;20306;-40
2021/03/21 09:54:48;;;;;;;6.28;5.68;;;3.40;90.00;;;;;;5071291;28;20615;-40
2021/03/21 09:57:29;;;;;;;6.90;6.20;;;3.50;90.00;;;;;;5071227;28;20203;-40
2021/03/21 10:00:01;;;;;;;10.60;5.85;;;3.50;90.00;;;;;;5071482;28;20215;-41
2021/03/21 10:02:34;;;;;;;5.95;5.43;;;3.60;90.00;;;;;;5071513;28;20203;-41
2021/03/21 10:05:08;;;;;;;11.13;8.70;;;3.60;90.10;;;;;;5071337;28;20302;-40
2021/03/21 10:07:43;;;;;;;8.90;6.27;;;3.70;90.10;;;;;;5071201;28;20242;-40
2021/03/21 10:10:20;;;;;;;6.18;5.57;;;3.70;90.30;;;;;;5070087;28;20207;-40
2021/03/21 10:12:48;;;;;;;8.18;6.32;;;3.80;90.30;;;;;;5070715;28;20615;-40
2021/03/21 10:15:18;;;;;;;8.30;6.65;;;4.00;90.30;;;;;;5071266;28;20234;-41
2021/03/21 10:17:53;;;;;;;9.48;6.40;;;4.10;90.30;;;;;;5071260;28;20246;-40
2021/03/21 10:20:42;;;;;;;6.70;5.27;;;4.10;90.40;;;;;;5071008;28;20309;-41
2021/03/21 10:23:09;;;;;;;7.45;6.20;;;4.10;90.60;;;;;;5071317;28;20254;-39
2021/03/21 10:25:53;;;;;;;8.68;5.97;;;4.10;90.60;;;;;;5071040;28;20302;-41
2021/03/21 10:28:45;;;;;;;7.63;5.68;;;4.20;90.80;;;;;;5071719;28;20207;-41
2021/03/21 10:31:42;;;;;;;8.57;6.00;;;4.20;91.20;;;;;;5071186;28;20254;-41
2021/03/21 10:34:36;;;;;;;6.57;5.88;;;4.20;91.30;;;;;;5071437;28;20219;-41
2021/03/21 10:37:05;;;;;;;8.90;6.90;;;4.20;91.70;;;;;;5071365;28;20309;-43
2021/03/21 10:39:58;;;;;;;8.13;6.65;;;4.20;92.00;;;;;;5071345;28;20207;-41
2021/03/21 10:42:44;;;;;;;9.68;7.03;;;4.10;92.50;;;;;;5071085;28;20242;-40
2021/03/21 10:45:15;;;;;;;8.38;6.93;;;4.20;92.60;;;;;;5070763;28;20669;-41
2021/03/21 10:47:49;;;;;;;9.10;7.50;;;4.20;92.70;;;;;;5072292;28;20303;-42
2021/03/21 10:50:59;;;;;;;8.98;7.15;;;4.30;93.10;;;;;;5074341;28;20235;-42
2021/03/21 10:53:33;;;;;;;8.18;6.57;;;4.40;93.80;;;;;;5074399;28;20243;-42
2021/03/21 10:56:06;;;;;;;9.98;6.82;;;4.50;93.70;;;;;;5074262;28;20294;-41
2021/03/21 10:58:53;;;;;;;10.93;7.78;;;4.60;93.30;;;;;;5074339;28;20327;-41
2021/03/21 11:01:28;;;;;;;10.02;7.00;;;4.80;93.10;;;;;;5074377;28;20235;-42
2021/03/21 11:04:24;;;;;;;8.43;7.63;;;4.90;93.30;;;;;;5074182;28;20211;-41
2021/03/21 11:07:06;;;;;;;8.48;7.15;;;4.80;93.50;;;;;;5074083;28;20720;-41
2021/03/21 11:09:36;;;;;;;9.07;6.57;;;4.90;93.50;;;;;;5074255;28;20738;-43
2021/03/21 11:12:05;;;;;;;10.35;7.90;;;5.00;93.50;;;;;;5074160;28;20235;-41
2021/03/21 11:14:35;;;;;;;9.55;7.75;;;5.10;93.20;;;;;;5073888;28;20290;-42
2021/03/21 11:17:13;;;;;;;8.82;7.55;;;5.10;93.30;;;;;;5073618;28;20645;-42
2021/03/21 11:19:47;;;;;;;8.75;7.95;;;5.30;93.10;;;;;;5073769;28;20241;-41
2021/03/21 11:22:26;;;;;;;10.65;7.63;;;5.30;92.90;;;;;;5073969;28;20334;-42
2021/03/21 11:24:54;;;;;;;9.45;8.48;;;5.20;93.00;;;;;;5073525;28;20207;-50
2021/03/21 11:27:28;;;;;;;9.98;7.20;;;5.10;93.10;;;;;;5073592;28;20208;-43
2021/03/21 11:30:08;;;;;;;8.70;7.15;;;5.00;93.10;;;;;;5073581;28;20233;-43
2021/03/21 11:32:36;;;;;;;9.85;7.55;;;5.00;93.60;;;;;;5073801;28;20289;-42
2021/03/21 11:35:07;;;;;;;8.25;6.72;;;5.00;93.30;;;;;;5073661;28;20215;-42
2021/03/21 11:37:37;;;;;;;16.00;12.38;;;5.10;93.30;;;;;;5073836;28;20237;-42
2021/03/21 11:40:13;;;;;;;13.98;10.65;;;5.20;93.10;;;;;;5073104;28;20216;-42
2021/03/21 11:42:43;;;;;;;14.90;11.38;;;5.30;93.00;;;;;;5073431;28;20681;-42
2021/03/21 11:45:21;;;;;;;8.10;7.30;;;5.60;92.70;;;;;;5073624;28;20254;-42
2021/03/21 11:47:50;;;;;;;13.90;8.57;;;5.60;92.30;;;;;;5073277;28;20602;-42
2021/03/21 11:50:20;;;;;;;8.60;7.32;;;5.60;92.40;;;;;;5073769;28;20352;-42
2021/03/21 11:52:48;;;;;;;10.30;7.38;;;5.70;92.30;;;;;;5073661;28;20298;-43
2021/03/21 11:55:18;;;;;;;7.22;6.53;;;5.70;92.20;;;;;;5073325;28;20246;-42
2021/03/21 11:58:03;;;;;;;17.08;13.48;;;5.50;92.30;;;;;;5073396;28;20731;-44
2021/03/21 12:00:32;;;;;;;9.75;8.00;;;5.40;92.80;;;;;;5071354;28;20749;-44
2021/03/21 12:03:05;;;;;;;10.27;8.45;;;5.40;92.50;;;;;;5073320;28;20230;-42
2021/03/21 12:05:35;;;;;;;9.50;8.50;;;5.30;92.70;;;;;;5073135;28;20222;-42
2021/03/21 12:08:21;;;;;;;10.82;8.80;;;5.20;92.80;;;;;;5073129;28;20206;-42
2021/03/21 12:10:50;;;;;;;12.13;8.75;;;5.10;93.00;;;;;;5072673;28;20276;-41
2021/03/21 12:13:32;;;;;;;10.32;8.02;;;5.10;93.10;;;;;;5072943;28;20600;-41
2021/03/21 12:16:02;;;;;;;14.63;9.52;;;5.10;93.20;;;;;;5072945;28;20303;-41
2021/03/21 12:18:30;;;;;;;8.70;7.15;;;5.10;93.30;;;;;;5072615;28;20211;-42
2021/03/21 12:20:59;;;;;;;11.85;7.55;;;5.00;93.30;;;;;;5072700;28;20235;-41
2021/03/21 12:23:42;;;;;;;17.40;10.10;;;4.90;93.50;;;;;;5072398;28;20234;-42
2021/03/21 12:26:20;;;;;;;15.02;8.25;;;5.00;93.60;;;;;;5072897;28;20207;-42
2021/03/21 12:28:53;;;;;;;11.40;8.27;;;5.00;93.60;;;;;;5072658;28;20246;-41
2021/03/21 12:31:26;;;;;;;9.52;8.20;;;5.00;93.60;;;;;;5072416;28;20212;-43
2021/03/21 12:33:54;;;;;;;9.65;8.30;;;5.00;93.60;;;;;;5072630;28;20265;-42
2021/03/21 12:36:30;;;;;;;12.35;8.43;;;5.00;93.80;;;;;;5072528;28;20222;-42
2021/03/21 12:39:26;;;;;;;15.38;9.57;;;4.90;93.90;;;;;;5072097;28;20642;-43
2021/03/21 12:41:54;;;;;;;14.98;8.35;;;4.80;94.20;;;;;;5072044;28;20306;-42
2021/03/21 12:44:25;;;;;;;14.43;9.65;;;4.80;94.40;;;;;;5071922;28;20235;-42
2021/03/21 12:46:56;;;;;;;15.32;10.65;;;4.70;94.60;;;;;;5072220;28;20290;-42
2021/03/21 12:49:42;;;;;;;22.95;10.52;;;4.70;94.70;;;;;;5071870;28;20207;-42
2021/03/21 12:52:12;;;;;;;13.80;9.32;;;4.60;94.90;;;;;;5072002;28;20633;-42
2021/03/21 12:54:40;;;;;;;10.77;9.02;;;4.50;95.10;;;;;;5071922;28;20576;-42
2021/03/21 12:57:11;;;;;;;11.90;8.88;;;4.50;95.30;;;;;;5071907;28;20737;-42
2021/03/21 12:59:39;;;;;;;9.70;8.70;;;4.50;95.40;;;;;;5072193;28;20203;-43
2021/03/21 13:02:18;;;;;;;11.20;8.88;;;4.60;95.30;;;;;;5071728;28;20273;-42
2021/03/21 13:04:45;;;;;;;9.38;7.75;;;4.70;95.30;;;;;;5071648;28;20207;-42
2021/03/21 13:07:13;;;;;;;11.63;8.60;;;4.80;95.10;;;;;;5071721;28;20219;-42
2021/03/21 13:09:40;;;;;;;9.60;8.60;;;4.90;95.00;;;;;;5071927;28;20235;-44
2021/03/21 13:12:09;;;;;;;10.95;8.20;;;4.90;95.00;;;;;;5071884;28;20252;-42
2021/03/21 13:14:36;;;;;;;9.40;8.30;;;4.80;95.00;;;;;;5071563;28;20246;-43
2021/03/21 13:17:04;;;;;;;11.00;8.02;;;4.70;95.00;;;;;;5071611;28;20303;-42
2021/03/21 13:19:31;;;;;;;11.38;8.15;;;4.70;95.50;;;;;;5071649;28;20215;-42
2021/03/21 13:21:59;;;;;;;12.23;9.00;;;4.70;95.30;;;;;;5071651;28;20262;-42
2021/03/21 13:24:26;;;;;;;10.25;7.90;;;4.70;95.50;;;;;;5071604;28;20238;-42
2021/03/21 13:26:53;;;;;;;10.45;7.20;;;4.70;95.60;;;;;;5071051;28;20306;-41
2021/03/21 13:29:21;;;;;;;9.98;8.50;;;4.70;95.90;;;;;;5056485;28;20304;-42
2021/03/21 13:31:48;;;;;;;9.20;8.13;;;4.70;96.00;;;;;;5051460;28;20246;-41
2021/03/21 13:34:15;;;;;;;9.80;8.25;;;4.70;96.10;;;;;;5051253;28;20220;-41
2021/03/21 13:36:42;;;;;;;10.80;8.18;;;4.70;96.10;;;;;;5051353;28;20705;-41
2021/03/21 13:39:10;;;;;;;9.93;8.20;;;4.90;96.10;;;;;;5051196;28;20670;-41
2021/03/21 13:41:37;;;;;;;9.65;8.50;;;5.00;95.80;;;;;;5051130;28;20363;-43
2021/03/21 13:44:06;;;;;;;8.95;8.05;;;5.10;95.60;;;;;;5051183;28;20293;-43